sensor_id;sensor_type;location;lat;lon;timestamp;temperature;humidity
21772;DHT22;11047;47.904;8.110;2023-05-15T00:01:36;8.20;99.90
21772;DHT22;11047;47.904;8.110;2023-05-15T00:04:03;8.10;99.90
21772;DHT22;11047;47.904;8.110;2023-05-15T00:06:30;8.20;99.90
21772;DHT22;11047;47.904;8.110;2023-05-15T00:08:57;8.20;99.90
21772;DHT22;11047;47.904;8.110;2023-05-15T00:11:25;8.10;99.90
21772;DHT22;11047;47.904;8.110;2023-05-15T00:13:52;8.00;99.90
21772;DHT22;11047;47.904;8.110;2023-05-15T00:16:19;8.10;99.90
21772;DHT22;11047;47.904;8.110;2023-05-15T00:18:46;8.10;99.90
21772;DHT22;11047;47.904;8.110;2023-05-15T00:21:13;8.10;99.90
21772;DHT22;11047;47.904;8.110;2023-05-15T00:23:40;8.10;99.90
21772;DHT22;11047;47.904;8.110;2023-05-15T00:26:07;7.90;99.90
21772;DHT22;11047;47.904;8.110;2023-05-15T00:28:35;7.90;99.90
21772;DHT22;11047;47.904;8.110;2023-05-15T00:31:02;7.70;99.90
21772;DHT22;11047;47.904;8.110;2023-05-15T00:33:29;7.70;99.90
21772;DHT22;11047;47.904;8.110;2023-05-15T00:35:56;7.70;99.90
21772;DHT22;11047;47.904;8.110;2023-05-15T00:38:23;7.60;99.90
21772;DHT22;11047;47.904;8.110;2023-05-15T00:40:50;7.70;99.90
21772;DHT22;11047;47.904;8.110;2023-05-15T00:43:18;7.70;99.90
21772;DHT22;11047;47.904;8.110;2023-05-15T00:45:47;7.80;99.90
21772;DHT22;11047;47.904;8.110;2023-05-15T00:48:14;7.90;99.90
21772;DHT22;11047;47.904;8.110;2023-05-15T00:50:42;7.80;99.90
21772;DHT22;11047;47.904;8.110;2023-05-15T00:53:10;7.80;99.90
21772;DHT22;11047;47.904;8.110;2023-05-15T00:55:37;7.80;99.90
21772;DHT22;11047;47.904;8.110;2023-05-15T00:58:06;7.80;99.90
21772;DHT22;11047;47.904;8.110;2023-05-15T01:00:33;7.90;99.90
21772;DHT22;11047;47.904;8.110;2023-05-15T01:03:02;7.90;99.90
21772;DHT22;11047;47.904;8.110;2023-05-15T01:05:30;7.90;99.90
21772;DHT22;11047;47.904;8.110;2023-05-15T01:08:04;7.90;99.90
21772;DHT22;11047;47.904;8.110;2023-05-15T01:10:33;7.90;99.90
21772;DHT22;11047;47.904;8.110;2023-05-15T01:13:01;7.80;99.90
21772;DHT22;11047;47.904;8.110;2023-05-15T01:15:28;7.70;99.90
21772;DHT22;11047;47.904;8.110;2023-05-15T01:17:55;7.70;99.90
21772;DHT22;11047;47.904;8.110;2023-05-15T01:20:24;7.80;99.90
21772;DHT22;11047;47.904;8.110;2023-05-15T01:23:05;7.80;99.90
21772;DHT22;11047;47.904;8.110;2023-05-15T01:25:59;7.70;99.90
21772;DHT22;11047;47.904;8.110;2023-05-15T01:28:36;7.80;99.90
21772;DHT22;11047;47.904;8.110;2023-05-15T01:31:09;7.80;99.90
21772;DHT22;11047;47.904;8.110;2023-05-15T01:33:42;7.70;99.90
21772;DHT22;11047;47.904;8.110;2023-05-15T01:36:13;7.70;99.90
21772;DHT22;11047;47.904;8.110;2023-05-15T01:38:45;7.80;99.90
21772;DHT22;11047;47.904;8.110;2023-05-15T01:41:15;7.70;99.90
21772;DHT22;11047;47.904;8.110;2023-05-15T01:43:50;7.70;99.90
21772;DHT22;11047;47.904;8.110;2023-05-15T01:46:21;7.60;99.90
21772;DHT22;11047;47.904;8.110;2023-05-15T01:48:50;7.50;99.90
21772;DHT22;11047;47.904;8.110;2023-05-15T01:51:18;7.40;99.90
21772;DHT22;11047;47.904;8.110;2023-05-15T01:53:45;7.50;99.90
21772;DHT22;11047;47.904;8.110;2023-05-15T01:56:14;7.40;99.90
21772;DHT22;11047;47.904;8.110;2023-05-15T01:58:42;7.50;99.90
21772;DHT22;11047;47.904;8.110;2023-05-15T02:01:11;7.40;99.90
21772;DHT22;11047;47.904;8.110;2023-05-15T02:03:39;7.40;99.90
21772;DHT22;11047;47.904;8.110;2023-05-15T02:06:06;7.10;99.90
21772;DHT22;11047;47.904;8.110;2023-05-15T02:08:34;6.90;99.90
21772;DHT22;11047;47.904;8.110;2023-05-15T02:11:02;6.90;99.90
21772;DHT22;11047;47.904;8.110;2023-05-15T02:13:30;6.80;99.90
21772;DHT22;11047;47.904;8.110;2023-05-15T02:15:57;6.90;99.90
21772;DHT22;11047;47.904;8.110;2023-05-15T02:18:25;7.00;99.90
21772;DHT22;11047;47.904;8.110;2023-05-15T02:20:53;7.10;99.90
21772;DHT22;11047;47.904;8.110;2023-05-15T02:23:20;7.10;99.90
21772;DHT22;11047;47.904;8.110;2023-05-15T02:26:11;7.00;99.90
21772;DHT22;11047;47.904;8.110;2023-05-15T02:28:43;6.70;99.90
21772;DHT22;11047;47.904;8.110;2023-05-15T02:31:18;6.60;99.90
21772;DHT22;11047;47.904;8.110;2023-05-15T02:33:54;6.60;99.90
21772;DHT22;11047;47.904;8.110;2023-05-15T02:36:24;6.60;99.90
21772;DHT22;11047;47.904;8.110;2023-05-15T02:38:54;6.70;99.90
21772;DHT22;11047;47.904;8.110;2023-05-15T02:41:22;6.60;99.90
21772;DHT22;11047;47.904;8.110;2023-05-15T02:43:49;6.50;99.90
21772;DHT22;11047;47.904;8.110;2023-05-15T02:46:18;6.40;99.90
21772;DHT22;11047;47.904;8.110;2023-05-15T02:48:45;6.40;99.90
21772;DHT22;11047;47.904;8.110;2023-05-15T02:51:14;6.50;99.90
21772;DHT22;11047;47.904;8.110;2023-05-15T02:53:41;6.50;99.90
21772;DHT22;11047;47.904;8.110;2023-05-15T02:56:09;6.50;99.90
21772;DHT22;11047;47.904;8.110;2023-05-15T02:58:36;6.50;99.90
21772;DHT22;11047;47.904;8.110;2023-05-15T03:01:03;6.30;99.90
21772;DHT22;11047;47.904;8.110;2023-05-15T03:03:30;6.10;99.90
21772;DHT22;11047;47.904;8.110;2023-05-15T03:05:57;6.10;99.90
21772;DHT22;11047;47.904;8.110;2023-05-15T03:08:26;6.10;99.90
21772;DHT22;11047;47.904;8.110;2023-05-15T03:10:53;6.10;99.90
21772;DHT22;11047;47.904;8.110;2023-05-15T03:13:20;6.10;99.90
21772;DHT22;11047;47.904;8.110;2023-05-15T03:15:47;6.30;99.90
21772;DHT22;11047;47.904;8.110;2023-05-15T03:18:14;6.30;99.90
21772;DHT22;11047;47.904;8.110;2023-05-15T03:20:43;6.40;99.90
21772;DHT22;11047;47.904;8.110;2023-05-15T03:23:10;6.30;99.90
21772;DHT22;11047;47.904;8.110;2023-05-15T03:25:38;6.00;99.90
21772;DHT22;11047;47.904;8.110;2023-05-15T03:28:05;6.00;99.90
21772;DHT22;11047;47.904;8.110;2023-05-15T03:30:31;5.90;99.90
21772;DHT22;11047;47.904;8.110;2023-05-15T03:32:58;5.90;99.90
21772;DHT22;11047;47.904;8.110;2023-05-15T03:35:28;6.00;99.90
21772;DHT22;11047;47.904;8.110;2023-05-15T03:37:55;5.90;99.90
21772;DHT22;11047;47.904;8.110;2023-05-15T03:40:22;6.00;99.90
21772;DHT22;11047;47.904;8.110;2023-05-15T03:42:50;5.90;99.90
21772;DHT22;11047;47.904;8.110;2023-05-15T03:45:18;5.90;99.90
21772;DHT22;11047;47.904;8.110;2023-05-15T03:47:44;5.90;99.90
21772;DHT22;11047;47.904;8.110;2023-05-15T03:50:12;5.80;99.90
21772;DHT22;11047;47.904;8.110;2023-05-15T03:52:39;5.80;99.90
21772;DHT22;11047;47.904;8.110;2023-05-15T03:55:07;5.70;99.90
21772;DHT22;11047;47.904;8.110;2023-05-15T03:57:34;5.80;99.90
21772;DHT22;11047;47.904;8.110;2023-05-15T04:00:02;5.70;99.90
21772;DHT22;11047;47.904;8.110;2023-05-15T04:02:34;5.70;99.90
21772;DHT22;11047;47.904;8.110;2023-05-15T04:05:01;5.70;99.90
21772;DHT22;11047;47.904;8.110;2023-05-15T04:07:29;5.70;99.90
21772;DHT22;11047;47.904;8.110;2023-05-15T04:09:56;5.70;99.90
21772;DHT22;11047;47.904;8.110;2023-05-15T04:12:26;5.80;99.90
21772;DHT22;11047;47.904;8.110;2023-05-15T04:14:54;5.90;99.90
21772;DHT22;11047;47.904;8.110;2023-05-15T04:17:22;5.90;99.90
21772;DHT22;11047;47.904;8.110;2023-05-15T04:19:49;5.70;99.90
21772;DHT22;11047;47.904;8.110;2023-05-15T04:22:16;5.70;99.90
21772;DHT22;11047;47.904;8.110;2023-05-15T04:24:43;5.80;99.90
21772;DHT22;11047;47.904;8.110;2023-05-15T04:27:10;5.70;99.90
21772;DHT22;11047;47.904;8.110;2023-05-15T04:29:37;5.80;99.90
21772;DHT22;11047;47.904;8.110;2023-05-15T04:32:04;5.70;99.90
21772;DHT22;11047;47.904;8.110;2023-05-15T04:34:33;5.70;99.90
21772;DHT22;11047;47.904;8.110;2023-05-15T04:36:59;5.70;99.90
21772;DHT22;11047;47.904;8.110;2023-05-15T04:39:27;5.80;99.90
21772;DHT22;11047;47.904;8.110;2023-05-15T04:41:54;5.90;99.90
21772;DHT22;11047;47.904;8.110;2023-05-15T04:44:21;5.80;99.90
21772;DHT22;11047;47.904;8.110;2023-05-15T04:46:48;5.90;99.90
21772;DHT22;11047;47.904;8.110;2023-05-15T04:49:14;6.10;99.90
21772;DHT22;11047;47.904;8.110;2023-05-15T04:51:43;6.10;99.90
21772;DHT22;11047;47.904;8.110;2023-05-15T04:54:10;6.20;99.90
21772;DHT22;11047;47.904;8.110;2023-05-15T04:56:36;6.30;99.90
21772;DHT22;11047;47.904;8.110;2023-05-15T04:59:03;6.30;99.90
21772;DHT22;11047;47.904;8.110;2023-05-15T05:01:30;6.20;99.90
21772;DHT22;11047;47.904;8.110;2023-05-15T05:03:57;6.10;99.90
21772;DHT22;11047;47.904;8.110;2023-05-15T05:06:24;6.00;99.90
21772;DHT22;11047;47.904;8.110;2023-05-15T05:08:52;6.10;99.90
21772;DHT22;11047;47.904;8.110;2023-05-15T05:11:19;6.20;99.90
21772;DHT22;11047;47.904;8.110;2023-05-15T05:13:47;6.30;99.90
21772;DHT22;11047;47.904;8.110;2023-05-15T05:16:14;6.40;99.90
21772;DHT22;11047;47.904;8.110;2023-05-15T05:18:41;6.40;99.90
21772;DHT22;11047;47.904;8.110;2023-05-15T05:21:08;6.50;99.90
21772;DHT22;11047;47.904;8.110;2023-05-15T05:23:35;6.60;99.90
21772;DHT22;11047;47.904;8.110;2023-05-15T05:26:03;6.70;99.90
21772;DHT22;11047;47.904;8.110;2023-05-15T05:28:30;6.90;99.90
21772;DHT22;11047;47.904;8.110;2023-05-15T05:30:57;6.90;99.90
21772;DHT22;11047;47.904;8.110;2023-05-15T05:33:24;6.90;99.90
21772;DHT22;11047;47.904;8.110;2023-05-15T05:35:51;7.00;99.90
21772;DHT22;11047;47.904;8.110;2023-05-15T05:38:18;7.10;99.90
21772;DHT22;11047;47.904;8.110;2023-05-15T05:40:45;7.10;99.90
21772;DHT22;11047;47.904;8.110;2023-05-15T05:43:13;7.20;99.90
21772;DHT22;11047;47.904;8.110;2023-05-15T05:45:40;7.20;99.90
21772;DHT22;11047;47.904;8.110;2023-05-15T05:48:07;7.20;99.90
21772;DHT22;11047;47.904;8.110;2023-05-15T05:50:34;7.40;99.90
21772;DHT22;11047;47.904;8.110;2023-05-15T05:53:00;7.50;99.90
21772;DHT22;11047;47.904;8.110;2023-05-15T05:55:27;7.50;99.90
21772;DHT22;11047;47.904;8.110;2023-05-15T05:57:54;7.70;99.90
21772;DHT22;11047;47.904;8.110;2023-05-15T06:00:23;7.80;99.90
21772;DHT22;11047;47.904;8.110;2023-05-15T06:02:52;8.00;99.90
21772;DHT22;11047;47.904;8.110;2023-05-15T06:05:20;8.10;99.90
21772;DHT22;11047;47.904;8.110;2023-05-15T06:07:47;8.10;99.90
21772;DHT22;11047;47.904;8.110;2023-05-15T06:10:14;8.20;99.90
21772;DHT22;11047;47.904;8.110;2023-05-15T06:12:41;8.30;99.90
21772;DHT22;11047;47.904;8.110;2023-05-15T06:15:09;8.40;99.90
21772;DHT22;11047;47.904;8.110;2023-05-15T06:17:37;8.60;99.90
21772;DHT22;11047;47.904;8.110;2023-05-15T06:20:05;8.70;99.90
21772;DHT22;11047;47.904;8.110;2023-05-15T06:22:32;8.80;99.90
21772;DHT22;11047;47.904;8.110;2023-05-15T06:25:00;8.90;99.90
21772;DHT22;11047;47.904;8.110;2023-05-15T06:27:27;9.00;99.90
21772;DHT22;11047;47.904;8.110;2023-05-15T06:29:54;9.10;99.90
21772;DHT22;11047;47.904;8.110;2023-05-15T06:32:21;9.20;99.90
21772;DHT22;11047;47.904;8.110;2023-05-15T06:34:49;9.60;99.90
21772;DHT22;11047;47.904;8.110;2023-05-15T06:37:16;9.30;99.90
21772;DHT22;11047;47.904;8.110;2023-05-15T06:39:42;9.50;99.90
21772;DHT22;11047;47.904;8.110;2023-05-15T06:42:09;9.60;99.90
21772;DHT22;11047;47.904;8.110;2023-05-15T06:44:36;9.80;99.90
21772;DHT22;11047;47.904;8.110;2023-05-15T06:47:04;9.70;99.90
21772;DHT22;11047;47.904;8.110;2023-05-15T06:49:31;9.90;99.90
21772;DHT22;11047;47.904;8.110;2023-05-15T06:51:59;10.00;99.90
21772;DHT22;11047;47.904;8.110;2023-05-15T06:54:26;10.10;99.90
21772;DHT22;11047;47.904;8.110;2023-05-15T06:56:53;10.10;99.90
21772;DHT22;11047;47.904;8.110;2023-05-15T06:59:20;10.30;99.90
21772;DHT22;11047;47.904;8.110;2023-05-15T07:01:46;10.40;99.90
21772;DHT22;11047;47.904;8.110;2023-05-15T07:04:13;10.60;99.90
21772;DHT22;11047;47.904;8.110;2023-05-15T07:06:40;10.80;99.90
21772;DHT22;11047;47.904;8.110;2023-05-15T07:09:09;11.30;99.90
21772;DHT22;11047;47.904;8.110;2023-05-15T07:11:36;11.90;99.90
21772;DHT22;11047;47.904;8.110;2023-05-15T07:14:04;12.10;99.90
21772;DHT22;11047;47.904;8.110;2023-05-15T07:16:31;12.10;99.90
21772;DHT22;11047;47.904;8.110;2023-05-15T07:18:59;12.20;99.90
21772;DHT22;11047;47.904;8.110;2023-05-15T07:21:26;12.00;99.90
21772;DHT22;11047;47.904;8.110;2023-05-15T07:23:53;11.80;99.90
21772;DHT22;11047;47.904;8.110;2023-05-15T07:26:21;11.80;99.90
21772;DHT22;11047;47.904;8.110;2023-05-15T07:28:48;11.50;99.90
21772;DHT22;11047;47.904;8.110;2023-05-15T07:31:15;11.40;99.90
21772;DHT22;11047;47.904;8.110;2023-05-15T07:33:42;11.20;99.90
21772;DHT22;11047;47.904;8.110;2023-05-15T07:36:09;11.40;99.90
21772;DHT22;11047;47.904;8.110;2023-05-15T07:38:36;11.00;99.90
21772;DHT22;11047;47.904;8.110;2023-05-15T07:41:03;11.00;99.90
21772;DHT22;11047;47.904;8.110;2023-05-15T07:43:31;11.00;99.90
21772;DHT22;11047;47.904;8.110;2023-05-15T07:45:58;11.00;99.90
21772;DHT22;11047;47.904;8.110;2023-05-15T07:48:25;10.90;99.90
21772;DHT22;11047;47.904;8.110;2023-05-15T07:50:52;10.80;99.90
21772;DHT22;11047;47.904;8.110;2023-05-15T07:53:19;10.90;99.90
21772;DHT22;11047;47.904;8.110;2023-05-15T07:55:46;10.90;99.90
21772;DHT22;11047;47.904;8.110;2023-05-15T07:58:13;11.00;99.90
21772;DHT22;11047;47.904;8.110;2023-05-15T08:00:43;11.10;99.90
21772;DHT22;11047;47.904;8.110;2023-05-15T08:03:10;11.10;99.90
21772;DHT22;11047;47.904;8.110;2023-05-15T08:05:37;11.20;99.90
21772;DHT22;11047;47.904;8.110;2023-05-15T08:08:04;11.10;99.90
21772;DHT22;11047;47.904;8.110;2023-05-15T08:10:31;11.20;99.90
21772;DHT22;11047;47.904;8.110;2023-05-15T08:12:58;11.20;99.90
21772;DHT22;11047;47.904;8.110;2023-05-15T08:15:25;11.50;99.90
21772;DHT22;11047;47.904;8.110;2023-05-15T08:17:53;11.20;99.90
21772;DHT22;11047;47.904;8.110;2023-05-15T08:20:20;11.50;99.90
21772;DHT22;11047;47.904;8.110;2023-05-15T08:22:47;11.50;99.90
21772;DHT22;11047;47.904;8.110;2023-05-15T08:25:14;11.60;99.90
21772;DHT22;11047;47.904;8.110;2023-05-15T08:27:41;11.90;99.90
21772;DHT22;11047;47.904;8.110;2023-05-15T08:30:08;12.10;99.90
21772;DHT22;11047;47.904;8.110;2023-05-15T08:32:35;12.40;99.90
21772;DHT22;11047;47.904;8.110;2023-05-15T08:35:05;12.50;99.90
21772;DHT22;11047;47.904;8.110;2023-05-15T08:37:32;12.60;99.90
21772;DHT22;11047;47.904;8.110;2023-05-15T08:39:59;12.80;99.90
21772;DHT22;11047;47.904;8.110;2023-05-15T08:42:31;12.80;99.90
21772;DHT22;11047;47.904;8.110;2023-05-15T08:44:59;12.70;99.90
21772;DHT22;11047;47.904;8.110;2023-05-15T08:47:27;12.90;99.90
21772;DHT22;11047;47.904;8.110;2023-05-15T08:49:58;13.30;99.90
21772;DHT22;11047;47.904;8.110;2023-05-15T08:52:29;13.60;99.90
21772;DHT22;11047;47.904;8.110;2023-05-15T08:54:57;14.30;99.90
21772;DHT22;11047;47.904;8.110;2023-05-15T08:57:25;14.40;99.90
21772;DHT22;11047;47.904;8.110;2023-05-15T08:59:54;15.10;99.90
21772;DHT22;11047;47.904;8.110;2023-05-15T09:02:21;15.40;99.90
21772;DHT22;11047;47.904;8.110;2023-05-15T09:04:48;15.60;99.90
21772;DHT22;11047;47.904;8.110;2023-05-15T09:07:15;15.50;99.90
21772;DHT22;11047;47.904;8.110;2023-05-15T09:09:44;15.20;99.90
21772;DHT22;11047;47.904;8.110;2023-05-15T09:12:13;15.20;99.90
21772;DHT22;11047;47.904;8.110;2023-05-15T09:14:40;15.50;99.90
21772;DHT22;11047;47.904;8.110;2023-05-15T09:17:09;15.50;99.90
21772;DHT22;11047;47.904;8.110;2023-05-15T09:19:37;15.50;99.90
21772;DHT22;11047;47.904;8.110;2023-05-15T09:22:14;15.30;99.90
21772;DHT22;11047;47.904;8.110;2023-05-15T09:24:45;15.40;99.90
21772;DHT22;11047;47.904;8.110;2023-05-15T09:27:13;15.40;99.90
21772;DHT22;11047;47.904;8.110;2023-05-15T09:29:40;15.40;99.90
21772;DHT22;11047;47.904;8.110;2023-05-15T09:32:09;14.90;99.90
21772;DHT22;11047;47.904;8.110;2023-05-15T09:34:37;15.40;99.90
21772;DHT22;11047;47.904;8.110;2023-05-15T09:37:05;16.00;99.90
21772;DHT22;11047;47.904;8.110;2023-05-15T09:39:32;15.40;99.90
21772;DHT22;11047;47.904;8.110;2023-05-15T09:42:09;15.10;99.90
21772;DHT22;11047;47.904;8.110;2023-05-15T09:44:40;15.10;99.90
21772;DHT22;11047;47.904;8.110;2023-05-15T09:47:08;15.00;99.90
21772;DHT22;11047;47.904;8.110;2023-05-15T09:49:36;15.00;99.90
21772;DHT22;11047;47.904;8.110;2023-05-15T09:52:07;15.00;99.90
21772;DHT22;11047;47.904;8.110;2023-05-15T09:54:34;15.40;99.90
21772;DHT22;11047;47.904;8.110;2023-05-15T09:57:08;15.60;99.90
21772;DHT22;11047;47.904;8.110;2023-05-15T09:59:42;15.60;99.90
21772;DHT22;11047;47.904;8.110;2023-05-15T10:02:12;15.60;99.90
21772;DHT22;11047;47.904;8.110;2023-05-15T10:04:39;15.70;99.90
21772;DHT22;11047;47.904;8.110;2023-05-15T10:07:07;15.80;99.90
21772;DHT22;11047;47.904;8.110;2023-05-15T10:09:34;15.80;99.90
21772;DHT22;11047;47.904;8.110;2023-05-15T10:12:02;15.80;99.90
21772;DHT22;11047;47.904;8.110;2023-05-15T10:14:30;15.90;99.90
21772;DHT22;11047;47.904;8.110;2023-05-15T10:16:57;16.20;99.90
21772;DHT22;11047;47.904;8.110;2023-05-15T10:19:26;16.50;99.90
21772;DHT22;11047;47.904;8.110;2023-05-15T10:21:55;16.40;99.90
21772;DHT22;11047;47.904;8.110;2023-05-15T10:24:24;16.30;99.90
21772;DHT22;11047;47.904;8.110;2023-05-15T10:26:54;16.70;99.90
21772;DHT22;11047;47.904;8.110;2023-05-15T10:29:22;16.80;99.90
21772;DHT22;11047;47.904;8.110;2023-05-15T10:31:52;16.90;99.90
21772;DHT22;11047;47.904;8.110;2023-05-15T10:34:20;16.60;99.90
21772;DHT22;11047;47.904;8.110;2023-05-15T10:36:49;16.80;99.90
21772;DHT22;11047;47.904;8.110;2023-05-15T10:39:16;16.30;99.90
21772;DHT22;11047;47.904;8.110;2023-05-15T10:41:44;16.20;99.90
21772;DHT22;11047;47.904;8.110;2023-05-15T10:44:13;16.70;99.90
21772;DHT22;11047;47.904;8.110;2023-05-15T10:46:41;17.10;99.90
21772;DHT22;11047;47.904;8.110;2023-05-15T10:49:11;17.50;99.90
21772;DHT22;11047;47.904;8.110;2023-05-15T10:51:41;17.80;99.90
21772;DHT22;11047;47.904;8.110;2023-05-15T10:54:08;17.00;99.90
21772;DHT22;11047;47.904;8.110;2023-05-15T10:56:37;16.50;99.90
21772;DHT22;11047;47.904;8.110;2023-05-15T10:59:05;16.60;99.90
21772;DHT22;11047;47.904;8.110;2023-05-15T11:01:33;17.10;99.90
21772;DHT22;11047;47.904;8.110;2023-05-15T11:04:05;17.10;99.90
21772;DHT22;11047;47.904;8.110;2023-05-15T11:06:34;16.20;99.90
21772;DHT22;11047;47.904;8.110;2023-05-15T11:09:32;16.20;99.90
21772;DHT22;11047;47.904;8.110;2023-05-15T11:12:00;15.50;99.90
21772;DHT22;11047;47.904;8.110;2023-05-15T11:14:28;15.80;99.90
21772;DHT22;11047;47.904;8.110;2023-05-15T11:16:59;16.30;99.90
21772;DHT22;11047;47.904;8.110;2023-05-15T11:19:33;17.00;99.90
21772;DHT22;11047;47.904;8.110;2023-05-15T11:22:14;17.50;99.90
21772;DHT22;11047;47.904;8.110;2023-05-15T11:24:49;17.10;99.90
21772;DHT22;11047;47.904;8.110;2023-05-15T11:27:17;17.60;99.90
21772;DHT22;11047;47.904;8.110;2023-05-15T11:30:10;17.30;99.90
21772;DHT22;11047;47.904;8.110;2023-05-15T11:32:59;16.90;99.90
21772;DHT22;11047;47.904;8.110;2023-05-15T11:35:28;17.20;99.90
21772;DHT22;11047;47.904;8.110;2023-05-15T11:37:59;16.90;99.90
21772;DHT22;11047;47.904;8.110;2023-05-15T11:40:28;16.90;99.90
21772;DHT22;11047;47.904;8.110;2023-05-15T11:43:00;16.60;99.90
21772;DHT22;11047;47.904;8.110;2023-05-15T11:45:28;17.00;99.90
21772;DHT22;11047;47.904;8.110;2023-05-15T11:47:55;17.00;99.90
21772;DHT22;11047;47.904;8.110;2023-05-15T11:50:23;17.50;99.90
21772;DHT22;11047;47.904;8.110;2023-05-15T11:52:50;17.20;99.90
21772;DHT22;11047;47.904;8.110;2023-05-15T11:55:19;17.30;99.90
21772;DHT22;11047;47.904;8.110;2023-05-15T11:57:47;16.90;99.90
21772;DHT22;11047;47.904;8.110;2023-05-15T12:00:14;17.20;99.90
21772;DHT22;11047;47.904;8.110;2023-05-15T12:02:41;17.60;99.90
21772;DHT22;11047;47.904;8.110;2023-05-15T12:05:09;17.50;99.90
21772;DHT22;11047;47.904;8.110;2023-05-15T12:07:37;16.90;99.90
21772;DHT22;11047;47.904;8.110;2023-05-15T12:10:05;17.20;99.90
21772;DHT22;11047;47.904;8.110;2023-05-15T12:12:34;17.20;99.90
21772;DHT22;11047;47.904;8.110;2023-05-15T12:15:02;17.50;99.90
21772;DHT22;11047;47.904;8.110;2023-05-15T12:17:30;17.50;99.90
21772;DHT22;11047;47.904;8.110;2023-05-15T12:19:58;17.60;99.90
21772;DHT22;11047;47.904;8.110;2023-05-15T12:22:25;17.70;99.90
21772;DHT22;11047;47.904;8.110;2023-05-15T12:24:52;17.80;99.90
21772;DHT22;11047;47.904;8.110;2023-05-15T12:27:19;17.90;99.90
21772;DHT22;11047;47.904;8.110;2023-05-15T12:29:47;18.10;99.90
21772;DHT22;11047;47.904;8.110;2023-05-15T12:32:14;17.80;99.90
21772;DHT22;11047;47.904;8.110;2023-05-15T12:34:41;17.50;99.90
21772;DHT22;11047;47.904;8.110;2023-05-15T12:37:11;17.80;99.90
21772;DHT22;11047;47.904;8.110;2023-05-15T12:39:49;17.40;99.90
21772;DHT22;11047;47.904;8.110;2023-05-15T12:42:16;17.20;99.90
21772;DHT22;11047;47.904;8.110;2023-05-15T12:44:43;17.20;99.90
21772;DHT22;11047;47.904;8.110;2023-05-15T12:47:13;17.00;99.90
21772;DHT22;11047;47.904;8.110;2023-05-15T12:49:41;16.40;99.90
21772;DHT22;11047;47.904;8.110;2023-05-15T12:52:09;16.20;99.90
21772;DHT22;11047;47.904;8.110;2023-05-15T12:54:38;15.80;99.90
21772;DHT22;11047;47.904;8.110;2023-05-15T12:57:07;15.30;99.90
21772;DHT22;11047;47.904;8.110;2023-05-15T12:59:34;15.40;99.90
21772;DHT22;11047;47.904;8.110;2023-05-15T13:02:01;15.50;99.90
21772;DHT22;11047;47.904;8.110;2023-05-15T13:04:31;15.60;99.90
21772;DHT22;11047;47.904;8.110;2023-05-15T13:06:58;15.50;99.90
21772;DHT22;11047;47.904;8.110;2023-05-15T13:09:25;15.10;99.90
21772;DHT22;11047;47.904;8.110;2023-05-15T13:11:53;15.10;99.90
21772;DHT22;11047;47.904;8.110;2023-05-15T13:14:21;15.10;99.90
21772;DHT22;11047;47.904;8.110;2023-05-15T13:16:52;15.00;99.90
21772;DHT22;11047;47.904;8.110;2023-05-15T13:19:19;15.50;99.90
21772;DHT22;11047;47.904;8.110;2023-05-15T13:21:47;15.60;99.90
21772;DHT22;11047;47.904;8.110;2023-05-15T13:24:15;15.60;99.90
21772;DHT22;11047;47.904;8.110;2023-05-15T13:26:42;15.70;99.90
21772;DHT22;11047;47.904;8.110;2023-05-15T13:29:09;15.40;99.90
21772;DHT22;11047;47.904;8.110;2023-05-15T13:31:36;15.20;99.90
21772;DHT22;11047;47.904;8.110;2023-05-15T13:34:03;14.90;99.90
21772;DHT22;11047;47.904;8.110;2023-05-15T13:36:30;14.60;99.90
21772;DHT22;11047;47.904;8.110;2023-05-15T13:38:58;14.40;99.90
21772;DHT22;11047;47.904;8.110;2023-05-15T13:41:25;14.20;99.90
21772;DHT22;11047;47.904;8.110;2023-05-15T13:43:52;14.00;99.90
21772;DHT22;11047;47.904;8.110;2023-05-15T13:46:20;14.00;99.90
21772;DHT22;11047;47.904;8.110;2023-05-15T13:48:47;14.30;99.90
21772;DHT22;11047;47.904;8.110;2023-05-15T13:51:13;14.70;99.90
21772;DHT22;11047;47.904;8.110;2023-05-15T13:53:40;14.80;99.90
21772;DHT22;11047;47.904;8.110;2023-05-15T13:56:09;14.70;99.90
21772;DHT22;11047;47.904;8.110;2023-05-15T13:58:36;14.60;99.90
21772;DHT22;11047;47.904;8.110;2023-05-15T14:01:05;14.60;99.90
21772;DHT22;11047;47.904;8.110;2023-05-15T14:03:32;14.50;99.90
21772;DHT22;11047;47.904;8.110;2023-05-15T14:05:59;14.60;99.90
21772;DHT22;11047;47.904;8.110;2023-05-15T14:08:26;14.60;99.90
21772;DHT22;11047;47.904;8.110;2023-05-15T14:10:53;14.40;99.90
21772;DHT22;11047;47.904;8.110;2023-05-15T14:13:22;14.40;99.90
21772;DHT22;11047;47.904;8.110;2023-05-15T14:15:49;14.30;99.90
21772;DHT22;11047;47.904;8.110;2023-05-15T14:18:16;14.10;99.90
21772;DHT22;11047;47.904;8.110;2023-05-15T14:20:43;14.30;99.90
21772;DHT22;11047;47.904;8.110;2023-05-15T14:23:10;14.60;99.90
21772;DHT22;11047;47.904;8.110;2023-05-15T14:25:36;14.50;99.90
21772;DHT22;11047;47.904;8.110;2023-05-15T14:28:03;14.40;99.90
21772;DHT22;11047;47.904;8.110;2023-05-15T14:30:32;14.50;99.90
21772;DHT22;11047;47.904;8.110;2023-05-15T14:32:59;14.80;99.90
21772;DHT22;11047;47.904;8.110;2023-05-15T14:35:26;15.20;99.90
21772;DHT22;11047;47.904;8.110;2023-05-15T14:37:53;15.30;99.90
21772;DHT22;11047;47.904;8.110;2023-05-15T14:40:20;15.30;99.90
21772;DHT22;11047;47.904;8.110;2023-05-15T14:42:47;15.40;99.90
21772;DHT22;11047;47.904;8.110;2023-05-15T14:45:14;15.20;99.90
21772;DHT22;11047;47.904;8.110;2023-05-15T14:47:42;15.30;99.90
21772;DHT22;11047;47.904;8.110;2023-05-15T14:50:09;15.70;99.90
21772;DHT22;11047;47.904;8.110;2023-05-15T14:52:36;16.10;99.90
21772;DHT22;11047;47.904;8.110;2023-05-15T14:55:04;16.10;99.90
21772;DHT22;11047;47.904;8.110;2023-05-15T14:57:31;15.90;99.90
21772;DHT22;11047;47.904;8.110;2023-05-15T14:59:58;15.50;99.90
21772;DHT22;11047;47.904;8.110;2023-05-15T15:02:25;15.20;99.90
21772;DHT22;11047;47.904;8.110;2023-05-15T15:04:53;14.80;99.90
21772;DHT22;11047;47.904;8.110;2023-05-15T15:07:20;14.40;99.90
21772;DHT22;11047;47.904;8.110;2023-05-15T15:09:47;13.70;99.90
21772;DHT22;11047;47.904;8.110;2023-05-15T15:12:14;13.30;99.90
21772;DHT22;11047;47.904;8.110;2023-05-15T15:14:40;12.70;99.90
21772;DHT22;11047;47.904;8.110;2023-05-15T15:17:07;12.20;99.90
21772;DHT22;11047;47.904;8.110;2023-05-15T15:19:34;12.20;99.90
21772;DHT22;11047;47.904;8.110;2023-05-15T15:22:03;12.20;99.90
21772;DHT22;11047;47.904;8.110;2023-05-15T15:24:30;12.20;99.90
21772;DHT22;11047;47.904;8.110;2023-05-15T15:26:57;12.10;99.90
21772;DHT22;11047;47.904;8.110;2023-05-15T15:29:24;12.20;99.90
21772;DHT22;11047;47.904;8.110;2023-05-15T15:31:51;12.20;99.90
21772;DHT22;11047;47.904;8.110;2023-05-15T15:34:18;12.30;99.90
21772;DHT22;11047;47.904;8.110;2023-05-15T15:36:44;12.20;99.90
21772;DHT22;11047;47.904;8.110;2023-05-15T15:39:13;12.10;99.90
21772;DHT22;11047;47.904;8.110;2023-05-15T15:41:40;12.00;99.90
21772;DHT22;11047;47.904;8.110;2023-05-15T15:44:07;11.80;99.90